sensor_id;sensor_type;location;lat;lon;timestamp;pressure;altitude;pressure_sealevel;temperature;humidity
57885;BME280;43703;51.060;-0.086;2022-11-11T00:01:21;101059.17;;;10.91;70.58
57885;BME280;43703;51.060;-0.086;2022-11-11T00:03:48;101053.88;;;11.51;68.99
57885;BME280;43703;51.060;-0.086;2022-11-11T00:06:15;101054.71;;;11.52;69.07
57885;BME280;43703;51.060;-0.086;2022-11-11T00:08:47;101053.05;;;11.66;68.19
57885;BME280;43703;51.060;-0.086;2022-11-11T00:11:11;101054.09;;;12.90;65.23
57885;BME280;43703;51.060;-0.086;2022-11-11T00:13:32;101052.09;;;12.36;66.42
57885;BME280;43703;51.060;-0.086;2022-11-11T00:16:08;101055.86;;;11.45;67.89
57885;BME280;43703;51.060;-0.086;2022-11-11T00:18:24;101062.29;;;12.21;67.97
57885;BME280;43703;51.060;-0.086;2022-11-11T00:20:49;101064.58;;;11.16;70.39
57885;BME280;43703;51.060;-0.086;2022-11-11T00:23:20;101061.11;;;11.88;68.44
57885;BME280;43703;51.060;-0.086;2022-11-11T00:28:07;101065.00;;;11.09;70.09
57885;BME280;43703;51.060;-0.086;2022-11-11T00:30:31;101062.51;;;11.09;72.34
57885;BME280;43703;51.060;-0.086;2022-11-11T00:33:02;101056.12;;;11.04;71.61
57885;BME280;43703;51.060;-0.086;2022-11-11T00:35:28;101051.86;;;11.49;70.05
57885;BME280;43703;51.060;-0.086;2022-11-11T00:37:50;101057.26;;;11.15;71.47
57885;BME280;43703;51.060;-0.086;2022-11-11T00:40:14;101052.82;;;10.95;71.35
57885;BME280;43703;51.060;-0.086;2022-11-11T00:42:42;101055.49;;;11.52;69.99
57885;BME280;43703;51.060;-0.086;2022-11-11T00:45:11;101051.67;;;10.81;71.66
57885;BME280;43703;51.060;-0.086;2022-11-11T00:47:32;101050.59;;;11.13;71.03
57885;BME280;43703;51.060;-0.086;2022-11-11T00:49:58;101052.10;;;11.09;71.47
57885;BME280;43703;51.060;-0.086;2022-11-11T00:52:23;101051.85;;;11.35;69.95
57885;BME280;43703;51.060;-0.086;2022-11-11T00:54:49;101052.17;;;11.31;70.41
57885;BME280;43703;51.060;-0.086;2022-11-11T00:57:15;101052.44;;;11.59;68.70
57885;BME280;43703;51.060;-0.086;2022-11-11T00:59:41;101053.20;;;11.06;70.51
57885;BME280;43703;51.060;-0.086;2022-11-11T01:02:07;101054.41;;;11.41;69.46
57885;BME280;43703;51.060;-0.086;2022-11-11T01:04:33;101056.20;;;11.72;69.13
57885;BME280;43703;51.060;-0.086;2022-11-11T01:06:59;101055.11;;;11.48;70.13
57885;BME280;43703;51.060;-0.086;2022-11-11T01:09:24;101060.06;;;10.83;72.01
57885;BME280;43703;51.060;-0.086;2022-11-11T01:11:51;101068.60;;;10.85;72.32
57885;BME280;43703;51.060;-0.086;2022-11-11T01:14:23;101064.12;;;10.89;72.53
57885;BME280;43703;51.060;-0.086;2022-11-11T01:16:44;101065.40;;;10.36;74.09
57885;BME280;43703;51.060;-0.086;2022-11-11T01:19:09;101067.13;;;10.75;73.98
57885;BME280;43703;51.060;-0.086;2022-11-11T01:21:33;101068.49;;;10.97;73.67
57885;BME280;43703;51.060;-0.086;2022-11-11T01:24:00;101065.43;;;11.48;72.77
57885;BME280;43703;51.060;-0.086;2022-11-11T01:26:27;101068.40;;;11.53;71.64
57885;BME280;43703;51.060;-0.086;2022-11-11T01:28:53;101072.19;;;11.05;72.69
57885;BME280;43703;51.060;-0.086;2022-11-11T01:31:23;101072.77;;;10.51;72.96
57885;BME280;43703;51.060;-0.086;2022-11-11T01:33:42;101074.07;;;11.15;72.55
57885;BME280;43703;51.060;-0.086;2022-11-11T01:36:11;101073.33;;;11.46;70.86
57885;BME280;43703;51.060;-0.086;2022-11-11T01:38:35;101067.12;;;11.12;72.60
57885;BME280;43703;51.060;-0.086;2022-11-11T01:41:02;101071.21;;;11.30;72.14
57885;BME280;43703;51.060;-0.086;2022-11-11T01:43:27;101071.52;;;11.34;72.53
57885;BME280;43703;51.060;-0.086;2022-11-11T01:45:57;101074.69;;;11.27;72.14
57885;BME280;43703;51.060;-0.086;2022-11-11T01:48:26;101075.92;;;11.93;70.15
57885;BME280;43703;51.060;-0.086;2022-11-11T01:50:43;101080.32;;;11.38;72.40
57885;BME280;43703;51.060;-0.086;2022-11-11T01:53:09;101079.19;;;11.89;70.98
57885;BME280;43703;51.060;-0.086;2022-11-11T01:55:35;101078.20;;;11.41;72.39
57885;BME280;43703;51.060;-0.086;2022-11-11T01:58:03;101073.31;;;11.94;71.18
57885;BME280;43703;51.060;-0.086;2022-11-11T02:00:27;101073.30;;;11.28;71.68
57885;BME280;43703;51.060;-0.086;2022-11-11T02:02:54;101069.38;;;11.21;72.47
57885;BME280;43703;51.060;-0.086;2022-11-11T02:05:29;101074.62;;;11.21;73.31
57885;BME280;43703;51.060;-0.086;2022-11-11T02:07:49;101073.78;;;11.04;73.73
57885;BME280;43703;51.060;-0.086;2022-11-11T02:10:10;101075.48;;;10.84;74.48
57885;BME280;43703;51.060;-0.086;2022-11-11T02:12:36;101073.06;;;11.42;73.29
57885;BME280;43703;51.060;-0.086;2022-11-11T02:15:01;101071.90;;;11.44;72.81
57885;BME280;43703;51.060;-0.086;2022-11-11T02:17:29;101072.29;;;11.19;73.69
57885;BME280;43703;51.060;-0.086;2022-11-11T02:19:55;101076.32;;;11.45;72.16
57885;BME280;43703;51.060;-0.086;2022-11-11T02:22:26;101078.69;;;11.89;70.97
57885;BME280;43703;51.060;-0.086;2022-11-11T02:24:44;101071.46;;;11.62;71.54
57885;BME280;43703;51.060;-0.086;2022-11-11T02:27:13;101073.55;;;12.03;70.12
57885;BME280;43703;51.060;-0.086;2022-11-11T02:29:36;101072.61;;;10.87;73.80
57885;BME280;43703;51.060;-0.086;2022-11-11T02:32:01;101068.42;;;11.42;72.22
57885;BME280;43703;51.060;-0.086;2022-11-11T02:34:29;101064.92;;;11.54;71.69
57885;BME280;43703;51.060;-0.086;2022-11-11T02:36:53;101067.53;;;11.17;72.70
57885;BME280;43703;51.060;-0.086;2022-11-11T02:39:19;101071.55;;;12.03;70.31
57885;BME280;43703;51.060;-0.086;2022-11-11T02:41:49;101064.80;;;11.25;72.13
57885;BME280;43703;51.060;-0.086;2022-11-11T02:44:11;101066.07;;;11.06;72.78
57885;BME280;43703;51.060;-0.086;2022-11-11T02:46:37;101060.84;;;11.79;71.51
57885;BME280;43703;51.060;-0.086;2022-11-11T02:49:02;101060.41;;;11.92;71.29
57885;BME280;43703;51.060;-0.086;2022-11-11T02:51:33;101059.49;;;11.50;72.37
57885;BME280;43703;51.060;-0.086;2022-11-11T02:53:55;101055.38;;;12.08;70.25
57885;BME280;43703;51.060;-0.086;2022-11-11T02:56:19;101055.53;;;11.44;71.67
57885;BME280;43703;51.060;-0.086;2022-11-11T02:58:47;101056.50;;;11.42;71.48
57885;BME280;43703;51.060;-0.086;2022-11-11T03:01:12;101054.12;;;12.26;70.12
57885;BME280;43703;51.060;-0.086;2022-11-11T03:03:37;101055.20;;;11.98;70.06
57885;BME280;43703;51.060;-0.086;2022-11-11T03:06:04;101055.27;;;10.77;73.72
57885;BME280;43703;51.060;-0.086;2022-11-11T03:08:28;101061.77;;;10.84;73.81
57885;BME280;43703;51.060;-0.086;2022-11-11T03:10:54;101067.62;;;11.23;73.36
57885;BME280;43703;51.060;-0.086;2022-11-11T03:13:21;101068.07;;;11.23;72.82
57885;BME280;43703;51.060;-0.086;2022-11-11T03:18:12;101067.46;;;10.75;73.66
57885;BME280;43703;51.060;-0.086;2022-11-11T03:20:37;101063.41;;;11.03;72.85
57885;BME280;43703;51.060;-0.086;2022-11-11T03:23:05;101060.77;;;10.85;73.47
57885;BME280;43703;51.060;-0.086;2022-11-11T03:25:31;101057.72;;;10.80;73.91
57885;BME280;43703;51.060;-0.086;2022-11-11T03:28:00;101054.54;;;10.56;73.91
57885;BME280;43703;51.060;-0.086;2022-11-11T03:30:21;101058.94;;;11.54;71.04
57885;BME280;43703;51.060;-0.086;2022-11-11T03:32:47;101059.98;;;11.09;73.22
57885;BME280;43703;51.060;-0.086;2022-11-11T03:35:12;101055.06;;;11.33;72.33
57885;BME280;43703;51.060;-0.086;2022-11-11T03:37:39;101061.12;;;11.72;71.79
57885;BME280;43703;51.060;-0.086;2022-11-11T03:40:07;101058.15;;;11.26;70.94
57885;BME280;43703;51.060;-0.086;2022-11-11T03:42:31;101064.05;;;10.61;73.92
57885;BME280;43703;51.060;-0.086;2022-11-11T03:44:56;101064.94;;;11.06;73.07
57885;BME280;43703;51.060;-0.086;2022-11-11T03:47:23;101060.04;;;11.59;71.10
57885;BME280;43703;51.060;-0.086;2022-11-11T03:49:47;101059.22;;;10.78;73.17
57885;BME280;43703;51.060;-0.086;2022-11-11T03:52:14;101058.91;;;11.31;72.15
57885;BME280;43703;51.060;-0.086;2022-11-11T03:54:39;101056.48;;;11.48;71.54
57885;BME280;43703;51.060;-0.086;2022-11-11T03:57:05;101060.02;;;11.26;71.99
57885;BME280;43703;51.060;-0.086;2022-11-11T03:59:30;101066.23;;;11.48;72.03
57885;BME280;43703;51.060;-0.086;2022-11-11T04:01:56;101061.64;;;10.91;73.06
57885;BME280;43703;51.060;-0.086;2022-11-11T04:04:23;101062.20;;;11.05;71.96
57885;BME280;43703;51.060;-0.086;2022-11-11T04:06:48;101060.69;;;12.17;68.87
57885;BME280;43703;51.060;-0.086;2022-11-11T04:09:14;101058.97;;;10.93;72.41
57885;BME280;43703;51.060;-0.086;2022-11-11T04:11:42;101060.13;;;10.81;72.90
57885;BME280;43703;51.060;-0.086;2022-11-11T04:14:08;101061.12;;;10.53;73.41
57885;BME280;43703;51.060;-0.086;2022-11-11T04:16:33;101059.10;;;10.36;73.26
57885;BME280;43703;51.060;-0.086;2022-11-11T04:18:58;101062.77;;;10.86;72.10
57885;BME280;43703;51.060;-0.086;2022-11-11T04:21:23;101057.39;;;10.49;73.29
57885;BME280;43703;51.060;-0.086;2022-11-11T04:23:48;101057.60;;;11.23;72.74
57885;BME280;43703;51.060;-0.086;2022-11-11T04:26:14;101056.04;;;10.54;73.29
57885;BME280;43703;51.060;-0.086;2022-11-11T04:28:40;101060.11;;;10.70;72.16
57885;BME280;43703;51.060;-0.086;2022-11-11T04:31:05;101062.93;;;11.03;71.42
57885;BME280;43703;51.060;-0.086;2022-11-11T04:33:31;101064.02;;;11.00;70.46
57885;BME280;43703;51.060;-0.086;2022-11-11T04:35:58;101059.92;;;11.31;70.34
57885;BME280;43703;51.060;-0.086;2022-11-11T04:38:24;101063.87;;;11.33;70.41
57885;BME280;43703;51.060;-0.086;2022-11-11T04:40:53;101062.62;;;11.22;69.54
57885;BME280;43703;51.060;-0.086;2022-11-11T04:43:16;101068.58;;;11.24;69.72
57885;BME280;43703;51.060;-0.086;2022-11-11T04:45:40;101068.20;;;10.97;70.52
57885;BME280;43703;51.060;-0.086;2022-11-11T04:48:09;101073.67;;;10.98;71.80
57885;BME280;43703;51.060;-0.086;2022-11-11T04:50:39;101077.69;;;10.69;71.70
57885;BME280;43703;51.060;-0.086;2022-11-11T04:52:59;101076.52;;;10.82;71.26
57885;BME280;43703;51.060;-0.086;2022-11-11T04:55:24;101076.43;;;11.07;71.07
57885;BME280;43703;51.060;-0.086;2022-11-11T04:57:52;101073.24;;;11.20;71.27
57885;BME280;43703;51.060;-0.086;2022-11-11T05:00:19;101074.67;;;10.58;74.01
57885;BME280;43703;51.060;-0.086;2022-11-11T05:02:41;101075.79;;;11.21;73.53
57885;BME280;43703;51.060;-0.086;2022-11-11T05:05:07;101078.92;;;10.68;74.48
57885;BME280;43703;51.060;-0.086;2022-11-11T05:07:34;101077.70;;;11.27;71.96
57885;BME280;43703;51.060;-0.086;2022-11-11T05:10:01;101083.78;;;11.27;71.88
57885;BME280;43703;51.060;-0.086;2022-11-11T05:12:25;101080.50;;;11.61;70.24
57885;BME280;43703;51.060;-0.086;2022-11-11T05:14:51;101083.55;;;12.32;67.57
57885;BME280;43703;51.060;-0.086;2022-11-11T05:17:21;101085.99;;;11.12;71.43
57885;BME280;43703;51.060;-0.086;2022-11-11T05:19:42;101086.97;;;11.81;69.28
57885;BME280;43703;51.060;-0.086;2022-11-11T05:22:13;101089.12;;;11.81;69.78
57885;BME280;43703;51.060;-0.086;2022-11-11T05:24:34;101090.25;;;10.83;72.69
57885;BME280;43703;51.060;-0.086;2022-11-11T05:26:59;101093.04;;;11.37;70.96
57885;BME280;43703;51.060;-0.086;2022-11-11T05:29:25;101090.36;;;12.11;70.62
57885;BME280;43703;51.060;-0.086;2022-11-11T05:31:51;101084.61;;;11.14;72.63
57885;BME280;43703;51.060;-0.086;2022-11-11T05:34:17;101083.16;;;11.59;73.02
57885;BME280;43703;51.060;-0.086;2022-11-11T05:36:43;101077.76;;;11.43;73.19
57885;BME280;43703;51.060;-0.086;2022-11-11T05:39:09;101076.75;;;11.26;72.99
57885;BME280;43703;51.060;-0.086;2022-11-11T05:41:34;101073.59;;;11.23;73.74
57885;BME280;43703;51.060;-0.086;2022-11-11T05:44:00;101074.31;;;11.61;73.68
57885;BME280;43703;51.060;-0.086;2022-11-11T05:46:27;101075.01;;;12.12;71.65
57885;BME280;43703;51.060;-0.086;2022-11-11T05:48:52;101072.93;;;11.51;72.86
57885;BME280;43703;51.060;-0.086;2022-11-11T05:51:17;101073.79;;;12.28;70.08
57885;BME280;43703;51.060;-0.086;2022-11-11T05:53:44;101075.88;;;12.50;69.84
57885;BME280;43703;51.060;-0.086;2022-11-11T05:56:14;101074.17;;;10.86;75.69
57885;BME280;43703;51.060;-0.086;2022-11-11T05:58:34;101079.70;;;11.66;72.80
57885;BME280;43703;51.060;-0.086;2022-11-11T06:01:00;101078.11;;;11.61;74.23
57885;BME280;43703;51.060;-0.086;2022-11-11T06:03:26;101077.68;;;11.47;74.36
57885;BME280;43703;51.060;-0.086;2022-11-11T06:05:52;101079.67;;;10.99;75.74
57885;BME280;43703;51.060;-0.086;2022-11-11T06:08:18;101087.19;;;11.77;72.32
57885;BME280;43703;51.060;-0.086;2022-11-11T06:10:44;101087.41;;;11.77;72.20
57885;BME280;43703;51.060;-0.086;2022-11-11T06:13:09;101083.97;;;12.16;71.89
57885;BME280;43703;51.060;-0.086;2022-11-11T06:15:35;101084.75;;;11.46;73.62
57885;BME280;43703;51.060;-0.086;2022-11-11T06:18:00;101093.18;;;12.55;71.09
57885;BME280;43703;51.060;-0.086;2022-11-11T06:20:26;101092.68;;;11.86;72.47
57885;BME280;43703;51.060;-0.086;2022-11-11T06:22:52;101092.55;;;12.30;71.76
57885;BME280;43703;51.060;-0.086;2022-11-11T06:25:18;101096.60;;;11.55;72.86
57885;BME280;43703;51.060;-0.086;2022-11-11T06:27:43;101099.49;;;11.78;72.41
57885;BME280;43703;51.060;-0.086;2022-11-11T06:30:10;101100.28;;;11.23;75.10
57885;BME280;43703;51.060;-0.086;2022-11-11T06:32:35;101101.08;;;10.77;75.99
57885;BME280;43703;51.060;-0.086;2022-11-11T06:35:02;101101.05;;;11.81;73.98
57885;BME280;43703;51.060;-0.086;2022-11-11T06:37:26;101101.58;;;11.11;75.07
57885;BME280;43703;51.060;-0.086;2022-11-11T06:39:52;101103.43;;;11.80;72.41
57885;BME280;43703;51.060;-0.086;2022-11-11T06:42:18;101105.00;;;11.20;73.99
57885;BME280;43703;51.060;-0.086;2022-11-11T06:44:44;101106.68;;;12.31;72.36
57885;BME280;43703;51.060;-0.086;2022-11-11T06:47:09;101109.38;;;11.17;75.94
57885;BME280;43703;51.060;-0.086;2022-11-11T06:49:35;101105.78;;;11.81;74.64
57885;BME280;43703;51.060;-0.086;2022-11-11T06:52:01;101112.57;;;11.28;76.33
57885;BME280;43703;51.060;-0.086;2022-11-11T06:54:27;101110.26;;;11.17;75.79
57885;BME280;43703;51.060;-0.086;2022-11-11T06:56:53;101112.90;;;11.06;75.50
57885;BME280;43703;51.060;-0.086;2022-11-11T06:59:19;101116.85;;;10.94;75.80
57885;BME280;43703;51.060;-0.086;2022-11-11T07:01:45;101117.47;;;11.41;75.39
57885;BME280;43703;51.060;-0.086;2022-11-11T07:04:11;101119.64;;;11.70;75.68
57885;BME280;43703;51.060;-0.086;2022-11-11T07:06:37;101118.62;;;11.46;74.89
57885;BME280;43703;51.060;-0.086;2022-11-11T07:09:02;101119.44;;;11.73;73.41
57885;BME280;43703;51.060;-0.086;2022-11-11T07:11:27;101124.89;;;11.62;73.70
57885;BME280;43703;51.060;-0.086;2022-11-11T07:13:53;101132.72;;;11.42;75.23
57885;BME280;43703;51.060;-0.086;2022-11-11T07:16:18;101135.04;;;11.56;74.09
57885;BME280;43703;51.060;-0.086;2022-11-11T07:18:45;101136.48;;;10.47;77.63
57885;BME280;43703;51.060;-0.086;2022-11-11T07:21:10;101143.88;;;11.51;75.32
57885;BME280;43703;51.060;-0.086;2022-11-11T07:23:36;101142.06;;;10.74;75.55
57885;BME280;43703;51.060;-0.086;2022-11-11T07:26:02;101142.59;;;11.90;73.99
57885;BME280;43703;51.060;-0.086;2022-11-11T07:28:27;101146.03;;;11.57;73.51
57885;BME280;43703;51.060;-0.086;2022-11-11T07:30:53;101148.91;;;11.43;73.51
57885;BME280;43703;51.060;-0.086;2022-11-11T07:33:19;101145.90;;;11.56;72.90
57885;BME280;43703;51.060;-0.086;2022-11-11T07:35:45;101150.50;;;11.43;74.25
57885;BME280;43703;51.060;-0.086;2022-11-11T07:38:11;101151.33;;;11.22;73.51
57885;BME280;43703;51.060;-0.086;2022-11-11T07:40:36;101144.62;;;11.82;71.87
57885;BME280;43703;51.060;-0.086;2022-11-11T07:43:03;101145.98;;;11.45;72.90
57885;BME280;43703;51.060;-0.086;2022-11-11T07:45:28;101151.69;;;11.94;72.22
57885;BME280;43703;51.060;-0.086;2022-11-11T07:47:54;101160.67;;;12.26;70.65
57885;BME280;43703;51.060;-0.086;2022-11-11T07:50:19;101160.97;;;10.88;74.79
57885;BME280;43703;51.060;-0.086;2022-11-11T07:52:58;101162.27;;;10.96;74.39
57885;BME280;43703;51.060;-0.086;2022-11-11T07:55:11;101163.64;;;11.71;73.67
57885;BME280;43703;51.060;-0.086;2022-11-11T07:57:37;101168.55;;;11.41;72.89
57885;BME280;43703;51.060;-0.086;2022-11-11T08:00:04;101172.54;;;11.90;70.73
57885;BME280;43703;51.060;-0.086;2022-11-11T08:02:29;101171.20;;;12.07;70.27
57885;BME280;43703;51.060;-0.086;2022-11-11T08:04:55;101172.84;;;11.08;74.73
57885;BME280;43703;51.060;-0.086;2022-11-11T08:07:20;101168.68;;;12.07;72.80
57885;BME280;43703;51.060;-0.086;2022-11-11T08:09:46;101175.72;;;11.56;72.91
57885;BME280;43703;51.060;-0.086;2022-11-11T08:12:13;101179.04;;;11.64;73.39
57885;BME280;43703;51.060;-0.086;2022-11-11T08:14:37;101181.81;;;11.73;71.35
57885;BME280;43703;51.060;-0.086;2022-11-11T08:17:03;101186.56;;;11.46;73.51
57885;BME280;43703;51.060;-0.086;2022-11-11T08:19:29;101193.73;;;11.54;73.05
57885;BME280;43703;51.060;-0.086;2022-11-11T08:21:55;101195.50;;;12.02;72.53
57885;BME280;43703;51.060;-0.086;2022-11-11T08:24:20;101203.09;;;11.30;73.47
57885;BME280;43703;51.060;-0.086;2022-11-11T08:26:46;101202.83;;;11.34;74.96
57885;BME280;43703;51.060;-0.086;2022-11-11T08:29:12;101203.90;;;11.66;73.64
57885;BME280;43703;51.060;-0.086;2022-11-11T08:31:38;101213.04;;;10.64;77.14
57885;BME280;43703;51.060;-0.086;2022-11-11T08:34:04;101212.51;;;11.11;76.27
57885;BME280;43703;51.060;-0.086;2022-11-11T08:36:28;101222.91;;;11.30;75.46
57885;BME280;43703;51.060;-0.086;2022-11-11T08:38:54;101220.30;;;11.32;74.71
57885;BME280;43703;51.060;-0.086;2022-11-11T08:41:19;101218.04;;;11.22;75.83
57885;BME280;43703;51.060;-0.086;2022-11-11T08:43:45;101211.13;;;11.22;76.52
57885;BME280;43703;51.060;-0.086;2022-11-11T08:46:10;101215.20;;;10.85;76.51
57885;BME280;43703;51.060;-0.086;2022-11-11T08:48:36;101215.25;;;10.64;76.22
57885;BME280;43703;51.060;-0.086;2022-11-11T08:51:01;101218.28;;;12.07;72.30
57885;BME280;43703;51.060;-0.086;2022-11-11T08:53:28;101224.62;;;11.09;75.07
57885;BME280;43703;51.060;-0.086;2022-11-11T08:55:55;101223.61;;;10.32;76.76
57885;BME280;43703;51.060;-0.086;2022-11-11T08:58:19;101223.64;;;11.33;74.68
57885;BME280;43703;51.060;-0.086;2022-11-11T09:00:45;101226.12;;;10.21;77.33
57885;BME280;43703;51.060;-0.086;2022-11-11T09:03:12;101227.87;;;10.92;75.77
57885;BME280;43703;51.060;-0.086;2022-11-11T09:05:38;101225.35;;;11.45;74.37
57885;BME280;43703;51.060;-0.086;2022-11-11T09:08:04;101226.97;;;11.42;74.75
57885;BME280;43703;51.060;-0.086;2022-11-11T09:10:28;101228.95;;;12.12;71.46
57885;BME280;43703;51.060;-0.086;2022-11-11T09:12:56;101231.63;;;10.85;74.96
57885;BME280;43703;51.060;-0.086;2022-11-11T09:15:20;101236.30;;;11.06;74.67
57885;BME280;43703;51.060;-0.086;2022-11-11T09:17:46;101238.48;;;11.34;73.68
57885;BME280;43703;51.060;-0.086;2022-11-11T09:20:11;101241.86;;;11.15;73.37
57885;BME280;43703;51.060;-0.086;2022-11-11T09:22:42;101248.76;;;11.57;72.87
57885;BME280;43703;51.060;-0.086;2022-11-11T09:25:03;101248.62;;;11.32;72.56
57885;BME280;43703;51.060;-0.086;2022-11-11T09:27:28;101253.55;;;10.78;75.18
57885;BME280;43703;51.060;-0.086;2022-11-11T09:29:54;101254.53;;;11.70;73.15
57885;BME280;43703;51.060;-0.086;2022-11-11T09:32:20;101255.66;;;11.12;74.27
57885;BME280;43703;51.060;-0.086;2022-11-11T09:34:46;101256.92;;;11.21;73.89
57885;BME280;43703;51.060;-0.086;2022-11-11T09:37:11;101259.57;;;11.38;74.78
57885;BME280;43703;51.060;-0.086;2022-11-11T09:39:37;101257.25;;;11.68;72.79
57885;BME280;43703;51.060;-0.086;2022-11-11T09:42:09;101258.96;;;11.94;70.58
57885;BME280;43703;51.060;-0.086;2022-11-11T09:44:45;101259.33;;;11.33;73.27
57885;BME280;43703;51.060;-0.086;2022-11-11T09:47:01;101262.09;;;11.91;71.89
57885;BME280;43703;51.060;-0.086;2022-11-11T09:49:31;101270.62;;;10.85;74.61
57885;BME280;43703;51.060;-0.086;2022-11-11T09:51:50;101263.33;;;10.75;76.76
57885;BME280;43703;51.060;-0.086;2022-11-11T09:54:17;101272.75;;;11.60;73.17
57885;BME280;43703;51.060;-0.086;2022-11-11T09:56:38;101274.18;;;11.13;74.87
57885;BME280;43703;51.060;-0.086;2022-11-11T09:59:06;101273.76;;;12.19;70.48
57885;BME280;43703;51.060;-0.086;2022-11-11T10:01:35;101274.65;;;12.19;71.34
57885;BME280;43703;51.060;-0.086;2022-11-11T10:03:59;101281.59;;;11.76;71.63
57885;BME280;43703;51.060;-0.086;2022-11-11T10:06:23;101283.31;;;11.65;72.72
57885;BME280;43703;51.060;-0.086;2022-11-11T10:08:53;101285.71;;;11.00;74.63
57885;BME280;43703;51.060;-0.086;2022-11-11T10:11:15;101286.02;;;12.37;70.59
57885;BME280;43703;51.060;-0.086;2022-11-11T10:13:37;101293.26;;;11.18;73.50
57885;BME280;43703;51.060;-0.086;2022-11-11T10:16:08;101299.47;;;11.07;75.94
57885;BME280;43703;51.060;-0.086;2022-11-11T10:18:44;101296.09;;;11.47;72.63
57885;BME280;43703;51.060;-0.086;2022-11-11T10:20:55;101302.74;;;11.01;74.33
57885;BME280;43703;51.060;-0.086;2022-11-11T10:23:24;101300.64;;;11.73;72.08
57885;BME280;43703;51.060;-0.086;2022-11-11T10:25:52;101305.03;;;11.44;73.11
57885;BME280;43703;51.060;-0.086;2022-11-11T10:28:18;101315.11;;;11.28;73.13
57885;BME280;43703;51.060;-0.086;2022-11-11T10:30:37;101306.97;;;11.11;74.41
57885;BME280;43703;51.060;-0.086;2022-11-11T10:33:17;101311.72;;;11.05;74.87
57885;BME280;43703;51.060;-0.086;2022-11-11T10:35:32;101310.74;;;11.06;75.04
57885;BME280;43703;51.060;-0.086;2022-11-11T10:40:26;101322.38;;;10.82;75.00
57885;BME280;43703;51.060;-0.086;2022-11-11T10:42:47;101325.25;;;11.34;74.28
57885;BME280;43703;51.060;-0.086;2022-11-11T10:45:19;101322.09;;;11.03;73.48
57885;BME280;43703;51.060;-0.086;2022-11-11T10:47:46;101328.71;;;10.90;74.37
57885;BME280;43703;51.060;-0.086;2022-11-11T10:50:17;101331.79;;;10.90;75.02
57885;BME280;43703;51.060;-0.086;2022-11-11T10:52:35;101334.60;;;10.93;74.92
57885;BME280;43703;51.060;-0.086;2022-11-11T10:55:07;101334.09;;;10.91;74.58
57885;BME280;43703;51.060;-0.086;2022-11-11T10:57:27;101329.40;;;10.88;75.85
57885;BME280;43703;51.060;-0.086;2022-11-11T11:00:02;101328.04;;;10.77;75.59
57885;BME280;43703;51.060;-0.086;2022-11-11T11:02:20;101322.13;;;11.18;73.10
57885;BME280;43703;51.060;-0.086;2022-11-11T11:04:44;101323.80;;;11.09;74.97
57885;BME280;43703;51.060;-0.086;2022-11-11T11:07:09;101322.51;;;10.96;73.06
57885;BME280;43703;51.060;-0.086;2022-11-11T11:09:39;101332.39;;;10.77;74.53
57885;BME280;43703;51.060;-0.086;2022-11-11T11:16:51;101330.94;;;11.02;73.91
57885;BME280;43703;51.060;-0.086;2022-11-11T11:19:21;101326.09;;;11.34;73.48
57885;BME280;43703;51.060;-0.086;2022-11-11T11:21:48;101320.50;;;10.65;74.37
57885;BME280;43703;51.060;-0.086;2022-11-11T11:28:58;101320.67;;;11.53;70.69
57885;BME280;43703;51.060;-0.086;2022-11-11T11:33:52;101318.48;;;11.87;71.13
57885;BME280;43703;51.060;-0.086;2022-11-11T11:36:16;101312.92;;;12.09;70.63
57885;BME280;43703;51.060;-0.086;2022-11-11T11:38:48;101311.33;;;10.31;75.13
57885;BME280;43703;51.060;-0.086;2022-11-11T11:41:06;101312.50;;;10.10;75.93
57885;BME280;43703;51.060;-0.086;2022-11-11T11:43:33;101306.25;;;11.33;72.58
57885;BME280;43703;51.060;-0.086;2022-11-11T11:45:58;101309.06;;;10.95;75.20
57885;BME280;43703;51.060;-0.086;2022-11-11T11:48:38;101313.83;;;11.21;74.93
57885;BME280;43703;51.060;-0.086;2022-11-11T11:50:51;101309.42;;;11.04;74.79
57885;BME280;43703;51.060;-0.086;2022-11-11T11:53:33;101309.34;;;10.52;75.22
57885;BME280;43703;51.060;-0.086;2022-11-11T11:55:45;101312.12;;;10.57;76.85
57885;BME280;43703;51.060;-0.086;2022-11-11T12:00:39;101307.37;;;11.14;73.89
57885;BME280;43703;51.060;-0.086;2022-11-11T12:03:18;101299.72;;;11.34;72.41
57885;BME280;43703;51.060;-0.086;2022-11-11T12:05:30;101300.20;;;10.79;73.83
57885;BME280;43703;51.060;-0.086;2022-11-11T12:10:28;101298.70;;;11.79;71.29
57885;BME280;43703;51.060;-0.086;2022-11-11T12:12:50;101301.77;;;11.92;71.75
57885;BME280;43703;51.060;-0.086;2022-11-11T12:15:20;101296.39;;;11.25;72.53
57885;BME280;43703;51.060;-0.086;2022-11-11T12:22:44;101296.05;;;11.25;71.84
57885;BME280;43703;51.060;-0.086;2022-11-11T12:24:59;101300.15;;;11.59;71.88
57885;BME280;43703;51.060;-0.086;2022-11-11T12:27:24;101297.91;;;11.60;70.55
57885;BME280;43703;51.060;-0.086;2022-11-11T12:29:55;101292.94;;;11.89;70.93
57885;BME280;43703;51.060;-0.086;2022-11-11T12:32:26;101289.62;;;11.40;71.43
57885;BME280;43703;51.060;-0.086;2022-11-11T12:34:54;101289.01;;;11.34;72.26
57885;BME280;43703;51.060;-0.086;2022-11-11T12:37:06;101289.68;;;11.28;72.27
57885;BME280;43703;51.060;-0.086;2022-11-11T12:44:16;101283.89;;;12.33;69.05
57885;BME280;43703;51.060;-0.086;2022-11-11T12:49:22;101275.03;;;11.45;71.80
57885;BME280;43703;51.060;-0.086;2022-11-11T12:51:46;101270.08;;;11.77;71.35
57885;BME280;43703;51.060;-0.086;2022-11-11T12:54:03;101268.98;;;11.29;72.42
57885;BME280;43703;51.060;-0.086;2022-11-11T12:56:33;101277.90;;;10.68;74.13
57885;BME280;43703;51.060;-0.086;2022-11-11T12:59:02;101269.91;;;11.77;71.66
57885;BME280;43703;51.060;-0.086;2022-11-11T13:01:26;101262.12;;;12.86;69.68
57885;BME280;43703;51.060;-0.086;2022-11-11T13:03:51;101255.78;;;11.65;69.75
57885;BME280;43703;51.060;-0.086;2022-11-11T13:06:20;101253.29;;;11.91;71.77
57885;BME280;43703;51.060;-0.086;2022-11-11T13:11:05;101251.04;;;11.41;71.73